Chaseley, North Dakota
Current Conditions -  °F | °C
As of 4:15 AM on Saturday 22 Nov 2014 (Local Time) from K5H4 Reporting Station
Clear Clear  
Wind Chill: 16°   Ceiling: Unl
Heat Index: 25°   Visibility: 10mi
Dew Point: 25°   Wind: 8mph
Humidity: 100%   Direction: 230°SW
Pressure: 29.6"   Gusts: NA
Location:  47.45°N, 99.82°W
Report Text: K5H4 221015Z AUTO 23007KT 10SM CLR M04/M04 A2960 RMK AO2
Loading
Personal Weather Stations






























Interactive Weather Map New forecast layout! Learn more

10-Day Weather Forecast

Advertisements
Track Severe Weather on mobile